Time;durP1;ratioP1;P1;durP2;ratioP2;P2;SDS_P1;SDS_P2;PMS_P1;PMS_P2;Temp;Humidity;BMP_temperature;BMP_pressure;BME280_temperature;BME280_humidity;BME280_pressure;Samples;Min_cycle;Max_cycle;Signal;HPM_P1;HPM_P2
2022/01/13 00:02:28;;;;;;;9.13;6.10;;;;;;;-145.06;0.00;60892.56;4849136;28;20607;-87
2022/01/13 00:05:07;;;;;;;10.13;5.93;;;;;;;-145.06;0.00;60892.56;4850718;28;20033;-88
2022/01/13 00:07:46;;;;;;;10.45;6.13;;;;;;;-145.06;0.00;60892.56;4848096;28;20021;-87
2022/01/13 00:10:27;;;;;;;10.70;6.07;;;;;;;-145.06;0.00;60892.56;4851448;28;20380;-87
2022/01/13 00:13:08;;;;;;;11.32;6.97;;;;;;;-145.06;0.00;60892.56;4851429;28;20033;-88
2022/01/13 00:15:50;;;;;;;14.85;8.02;;;;;;;-145.06;0.00;60892.56;4851326;28;20116;-88
2022/01/13 00:18:48;;;;;;;15.13;8.23;;;;;;;5.49;0.00;60892.56;4851464;28;20030;-86
2022/01/13 00:24:13;;;;;;;11.88;6.80;;;;;;;-145.06;0.00;60892.56;4856265;28;20033;-88
2022/01/13 00:26:53;;;;;;;12.43;6.53;;;;;;;-145.06;0.00;60892.56;4855875;28;20037;-88
2022/01/13 00:29:32;;;;;;;9.82;5.95;;;;;;;4.84;0.00;60892.56;4852558;28;20108;-87
2022/01/13 00:32:14;;;;;;;10.93;6.93;;;;;;;-145.06;0.00;60892.56;4849555;28;20514;-87
2022/01/13 00:34:53;;;;;;;10.90;6.28;;;;;;;-145.06;0.00;60892.56;4852708;28;20029;-87
2022/01/13 00:37:34;;;;;;;9.77;6.07;;;;;;;4.13;0.00;60892.56;4850286;28;20029;-87
2022/01/13 00:40:14;;;;;;;12.75;7.03;;;;;;;4.09;0.00;60892.56;4853701;28;20030;-88
2022/01/13 00:42:53;;;;;;;9.57;6.35;;;;;;;-145.06;0.00;60892.56;4852481;28;20033;-87
2022/01/13 00:45:31;;;;;;;9.32;5.68;;;;;;;-145.06;0.00;60892.56;4863932;28;20033;-88
2022/01/13 00:48:10;;;;;;;9.93;6.07;;;;;;;21.08;0.00;60892.56;4856725;28;20025;-87
2022/01/13 00:50:50;;;;;;;8.88;5.88;;;;;;;3.96;0.00;60892.56;4856453;28;20369;-86
2022/01/13 00:53:29;;;;;;;8.43;5.22;;;;;;;3.92;0.00;60892.56;4859733;28;20037;-87
2022/01/13 00:56:08;;;;;;;10.30;6.00;;;;;;;4.19;0.00;60892.56;4863801;28;20033;-87
2022/01/13 00:58:47;;;;;;;9.70;5.43;;;;;;;-145.06;0.00;60892.56;4856417;28;20272;-87
2022/01/13 01:01:25;;;;;;;9.98;5.40;;;;;;;-145.06;0.00;60892.56;4854268;28;20053;-88
2022/01/13 01:04:05;;;;;;;8.77;5.20;;;;;;;3.84;0.00;60892.56;4854775;28;20037;-86
2022/01/13 01:06:45;;;;;;;8.90;5.53;;;;;;;-145.06;0.00;60892.56;4866091;28;20025;-88
2022/01/13 01:09:38;;;;;;;9.52;5.80;;;;;;;4.19;0.00;60892.56;4870310;28;20041;-86
2022/01/13 01:12:18;;;;;;;7.38;4.82;;;;;;;-145.06;0.00;60892.56;4856894;28;20037;-88
2022/01/13 01:14:58;;;;;;;9.82;6.03;;;;;;;-145.06;0.00;60892.56;4851404;28;20372;-87
2022/01/13 01:17:43;;;;;;;9.10;5.53;;;;;;;-145.06;0.00;60892.56;4855431;28;20030;-87
2022/01/13 01:20:29;;;;;;;11.30;6.18;;;;;;;-145.06;0.00;60892.56;4868193;28;20025;-88
2022/01/13 01:23:14;;;;;;;11.40;6.13;;;;;;;-145.06;0.00;60892.56;4856706;28;20061;-87
2022/01/13 01:26:20;;;;;;;10.70;5.82;;;;;;;-145.06;0.00;60892.56;4859606;28;20037;-88
2022/01/13 01:31:56;;;;;;;9.38;5.25;;;;;;;-145.06;0.00;60892.56;4855445;28;20041;-87
2022/01/13 01:34:55;;;;;;;7.85;4.80;;;;;;;-145.06;0.00;60892.56;4854449;28;20033;-88
2022/01/13 01:37:34;;;;;;;7.82;4.40;;;;;;;-145.06;0.00;60892.56;4855675;28;20673;-87
2022/01/13 01:40:13;;;;;;;6.87;3.97;;;;;;;-145.06;0.00;60892.56;4855222;28;20034;-88
2022/01/13 01:42:53;;;;;;;6.03;3.70;;;;;;;-145.06;0.00;60892.56;4856658;28;20280;-87
2022/01/13 01:45:40;;;;;;;6.53;3.63;;;;;;;-145.06;0.00;60892.56;4855021;28;20033;-87
2022/01/13 01:48:20;;;;;;;6.03;3.58;;;;;;;-145.06;0.00;60892.56;4858162;28;20509;-86
2022/01/13 01:51:00;;;;;;;5.88;3.40;;;;;;;-145.06;0.00;60892.56;4856098;28;20026;-88
2022/01/13 01:53:39;;;;;;;7.88;4.20;;;;;;;-145.06;0.00;60892.56;4860045;28;20037;-87
2022/01/13 01:56:18;;;;;;;6.83;3.77;;;;;;;-145.06;0.00;60892.56;4857217;28;20045;-88
2022/01/13 01:59:03;;;;;;;8.07;4.30;;;;;;;-145.06;0.00;60892.56;4855113;28;20268;-86
2022/01/13 02:01:44;;;;;;;6.57;3.83;;;;;;;-145.06;0.00;60892.56;4852438;28;20479;-87
2022/01/13 02:04:25;;;;;;;7.38;4.38;;;;;;;-145.06;0.00;60892.56;4867687;28;20578;-88
2022/01/13 02:07:07;;;;;;;7.15;4.03;;;;;;;-145.06;0.00;60892.56;4853160;28;20026;-87
2022/01/13 02:09:51;;;;;;;7.30;4.07;;;;;;;-145.06;0.00;60892.56;4853777;28;20491;-86
2022/01/13 02:12:37;;;;;;;6.13;3.50;;;;;;;-145.06;0.00;60892.56;4854409;28;20467;-87
2022/01/13 02:18:06;;;;;;;7.55;4.40;;;;;;;-145.06;0.00;60892.56;4852719;28;20041;-87
2022/01/13 02:20:51;;;;;;;7.25;4.28;;;;;;;-145.06;0.00;60892.56;4853795;28;20586;-88
2022/01/13 02:23:34;;;;;;;6.75;3.67;;;;;;;-145.06;0.00;60892.56;4853469;28;20037;-87
2022/01/13 02:26:14;;;;;;;8.27;4.30;;;;;;;-145.06;0.00;60892.56;4854534;28;20033;-88
2022/01/13 02:28:53;;;;;;;9.23;4.55;;;;;;;-145.06;0.00;60892.56;4851208;28;20067;-88
2022/01/13 02:31:32;;;;;;;8.90;4.88;;;;;;;-145.06;0.00;60892.56;4852801;28;20108;-87
2022/01/13 02:34:11;;;;;;;9.25;5.00;;;;;;;-145.06;0.00;60892.56;4868145;28;20037;-87
2022/01/13 02:36:53;;;;;;;8.03;4.70;;;;;;;-145.06;0.00;60892.56;4867134;28;20041;-86
2022/01/13 02:39:33;;;;;;;8.38;4.90;;;;;;;-145.06;0.00;60892.56;4853405;28;20359;-87
2022/01/13 02:42:13;;;;;;;;;;;;;;;-145.06;0.00;60892.56;4853369;28;20041;-87
2022/01/13 02:45:02;;;;;;;7.32;3.83;;;;;;;5.49;0.00;60892.56;4849801;28;19917;-86
2022/01/13 02:50:20;;;;;;;9.43;5.00;;;;;;;-145.06;0.00;60892.56;4854798;28;20471;-88
2022/01/13 02:52:59;;;;;;;8.75;4.93;;;;;;;187.52;0.00;60892.56;4867220;28;20049;-86
2022/01/13 02:55:38;;;;;;;9.90;4.90;;;;;;;2.89;0.00;60892.56;4859960;28;20046;-87
2022/01/13 02:58:17;;;;;;;8.65;4.95;;;;;;;2.79;0.00;60892.56;4855027;28;20276;-87
2022/01/13 03:00:57;;;;;;;9.45;4.63;;;;;;;-145.06;0.00;60892.56;4850947;28;20037;-87
2022/01/13 03:03:36;;;;;;;6.43;3.72;;;;;;;2.89;0.00;60892.56;4853163;28;20037;-86
2022/01/13 03:06:24;;;;;;;6.75;3.72;;;;;;;2.81;0.00;60892.56;4851447;28;20033;-88
2022/01/13 03:09:06;;;;;;;8.57;4.68;;;;;;;2.71;0.00;60892.56;4853524;28;20034;-88
2022/01/13 03:11:47;;;;;;;8.23;4.47;;;;;;;-145.06;0.00;60892.56;4870066;28;20029;-87
2022/01/13 03:14:25;;;;;;;;;;;;;;;2.73;0.00;60892.56;4852747;28;20108;-87
2022/01/13 03:17:05;;;;;;;6.50;3.67;;;;;;;-145.06;0.00;60892.56;4848532;28;19917;-88
2022/01/13 03:19:44;;;;;;;7.03;3.83;;;;;;;-145.06;0.00;60892.56;4852435;28;20156;-87
2022/01/13 03:22:23;;;;;;;7.60;4.40;;;;;;;-145.06;0.00;60892.56;4864005;28;20435;-86
2022/01/13 03:25:03;;;;;;;6.55;3.80;;;;;;;2.66;0.00;60892.56;4850732;28;20037;-87
2022/01/13 03:27:42;;;;;;;7.97;4.07;;;;;;;2.58;0.00;60892.56;4854067;28;20060;-87
2022/01/13 03:30:22;;;;;;;6.40;3.40;;;;;;;21.08;0.00;60892.56;4853205;28;20033;-87
2022/01/13 03:33:02;;;;;;;6.95;3.28;;;;;;;-145.06;0.00;60892.56;4854256;28;20033;-87
2022/01/13 03:35:41;;;;;;;;;;;;;;;-145.06;0.00;60892.56;4852859;28;20040;-87
2022/01/13 03:38:21;;;;;;;5.75;3.40;;;;;;;10.68;0.00;60892.56;4846543;28;19921;-87
2022/01/13 03:41:00;;;;;;;6.40;3.60;;;;;;;-145.06;0.00;60892.56;4851908;28;20041;-88
2022/01/13 03:43:39;;;;;;;6.23;3.57;;;;;;;-145.06;0.00;60892.56;4852088;28;20033;-88
2022/01/13 03:46:18;;;;;;;5.03;2.95;;;;;;;-145.06;0.00;60892.56;4852886;28;20116;-88
2022/01/13 03:48:57;;;;;;;6.27;3.57;;;;;;;-145.06;0.00;60892.56;4854238;28;20045;-87
2022/01/13 03:51:52;;;;;;;5.85;3.50;;;;;;;-145.06;0.00;60892.56;4852040;28;20272;-87
2022/01/13 03:54:34;;;;;;;6.78;3.40;;;;;;;-145.06;0.00;60892.56;4865892;28;20037;-88
2022/01/13 03:57:50;;;;;;;5.50;3.03;;;;;;;-145.06;0.00;60892.56;4856086;28;20129;-86
2022/01/13 04:00:59;;;;;;;5.20;2.85;;;;;;;-145.06;0.00;60892.56;4862442;28;20034;-87
2022/01/13 04:03:38;;;;;;;4.82;2.70;;;;;;;-145.06;0.00;60892.56;4850209;28;20029;-87
2022/01/13 04:06:17;;;;;;;6.50;3.37;;;;;;;-145.06;0.00;60892.56;4852618;28;20029;-87
2022/01/13 04:08:56;;;;;;;5.20;3.47;;;;;;;-145.06;0.00;60892.56;4853017;28;20120;-87
2022/01/13 04:11:35;;;;;;;5.88;3.05;;;;;;;-145.06;0.00;60892.56;4853475;28;20575;-87
2022/01/13 04:14:14;;;;;;;6.53;2.90;;;;;;;10.68;0.00;60892.56;4846893;28;20037;-87
2022/01/13 04:16:53;;;;;;;5.97;3.25;;;;;;;-145.06;0.00;60892.56;4845439;28;20038;-88
2022/01/13 04:19:32;;;;;;;5.32;3.35;;;;;;;2.24;0.00;60892.56;4857164;28;20029;-86
2022/01/13 04:22:13;;;;;;;5.20;3.20;;;;;;;-145.06;0.00;60892.56;4858410;28;20037;-87
2022/01/13 04:24:53;;;;;;;4.50;2.88;;;;;;;-145.06;0.00;60892.56;4853807;28;20037;-87
2022/01/13 04:27:37;;;;;;;5.28;3.10;;;;;;;-145.06;0.00;60892.56;4869664;28;20029;-86
2022/01/13 04:32:55;;;;;;;5.43;3.17;;;;;;;-145.06;0.00;60892.56;4858103;28;20057;-87
2022/01/13 04:35:34;;;;;;;5.65;3.40;;;;;;;10.68;0.00;60892.56;4855926;28;20041;-87
2022/01/13 04:38:13;;;;;;;4.07;2.80;;;;;;;-145.06;0.00;60892.56;4858568;28;20030;-87
2022/01/13 04:40:57;;;;;;;5.17;2.93;;;;;;;10.68;0.00;60892.56;4856384;28;20033;-85
2022/01/13 04:43:36;;;;;;;4.13;2.55;;;;;;;-145.06;0.00;60892.56;4857806;28;20034;-86
2022/01/13 04:46:15;;;;;;;4.18;2.60;;;;;;;-145.06;0.00;60892.56;4856537;28;20037;-88
2022/01/13 04:48:54;;;;;;;4.17;2.37;;;;;;;-145.06;0.00;60892.56;4856514;28;20037;-87
2022/01/13 04:51:35;;;;;;;3.25;2.08;;;;;;;-145.06;0.00;60892.56;4854634;28;20029;-87
2022/01/13 04:54:15;;;;;;;3.47;2.33;;;;;;;-145.06;0.00;60892.56;4855881;28;20116;-87
2022/01/13 04:57:15;;;;;;;4.32;2.75;;;;;;;-145.06;0.00;60892.56;4860166;28;20021;-88
2022/01/13 04:59:54;;;;;;;5.28;2.60;;;;;;;-145.06;0.00;60892.56;4855292;28;20820;-87
2022/01/13 05:02:32;;;;;;;4.30;2.53;;;;;;;-145.06;0.00;60892.56;4844225;28;20033;-88
2022/01/13 05:05:12;;;;;;;4.28;2.72;;;;;;;-145.06;0.00;60892.56;4856100;28;20030;-87
2022/01/13 05:07:52;;;;;;;4.95;2.67;;;;;;;-145.06;0.00;60892.56;4871138;28;20069;-86
2022/01/13 05:10:31;;;;;;;4.70;2.80;;;;;;;-145.06;0.00;60892.56;4870417;28;20057;-87
2022/01/13 05:13:11;;;;;;;5.88;3.25;;;;;;;-145.06;0.00;60892.56;4854188;28;20602;-87
2022/01/13 05:15:50;;;;;;;4.93;2.97;;;;;;;-145.06;0.00;60892.56;4856485;28;20045;-87
2022/01/13 05:18:44;;;;;;;5.90;3.15;;;;;;;-145.06;0.00;60892.56;4865295;28;20033;-86
2022/01/13 05:21:26;;;;;;;4.97;2.65;;;;;;;-145.06;0.00;60892.56;4855990;28;20034;-87
2022/01/13 05:24:05;;;;;;;5.45;2.97;;;;;;;-145.06;0.00;60892.56;4857227;28;20073;-88
2022/01/13 05:26:44;;;;;;;6.57;3.23;;;;;;;-145.06;0.00;60892.56;4851011;28;20373;-88
2022/01/13 05:29:23;;;;;;;6.82;3.33;;;;;;;-145.06;0.00;60892.56;4856487;28;20030;-87
2022/01/13 05:32:03;;;;;;;4.20;2.65;;;;;;;-145.06;0.00;60892.56;4856136;28;20471;-88
2022/01/13 05:34:42;;;;;;;4.80;2.53;;;;;;;-145.06;0.00;60892.56;4869911;28;20029;-88
2022/01/13 05:37:21;;;;;;;4.90;2.87;;;;;;;-145.06;0.00;60892.56;4869920;28;20022;-88
2022/01/13 05:40:00;;;;;;;3.77;2.50;;;;;;;-145.06;0.00;60892.56;4854878;28;20566;-87
2022/01/13 05:42:40;;;;;;;4.80;2.97;;;;;;;-145.06;0.00;60892.56;4868805;28;20053;-87
2022/01/13 05:45:21;;;;;;;4.20;2.90;;;;;;;-145.06;0.00;60892.56;4854228;28;20049;-87
2022/01/13 05:48:02;;;;;;;4.30;2.88;;;;;;;-145.06;0.00;60892.56;4864207;28;20363;-87
2022/01/13 05:50:41;;;;;;;5.35;3.00;;;;;;;-145.06;0.00;60892.56;4853598;28;20029;-87
2022/01/13 05:53:20;;;;;;;4.33;2.70;;;;;;;-145.06;0.00;60892.56;4861151;28;20475;-87
2022/01/13 05:55:59;;;;;;;4.97;3.00;;;;;;;-145.06;0.00;60892.56;4869030;28;20272;-89
2022/01/13 05:58:38;;;;;;;4.70;3.13;;;;;;;-145.06;0.00;60892.56;4866971;28;20029;-87
2022/01/13 06:01:17;;;;;;;5.40;3.33;;;;;;;-145.06;0.00;60892.56;4856711;28;20034;-87
2022/01/13 06:03:56;;;;;;;4.50;2.70;;;;;;;-145.06;0.00;60892.56;4851904;28;20542;-87
2022/01/13 06:06:35;;;;;;;4.97;3.03;;;;;;;187.52;0.00;60892.56;4852382;28;20256;-86
2022/01/13 06:09:14;;;;;;;4.70;3.13;;;;;;;-145.06;0.00;60892.56;4855263;28;20041;-87
2022/01/13 06:11:58;;;;;;;5.30;2.88;;;;;;;-145.06;0.00;60892.56;4854908;28;20535;-88
2022/01/13 06:14:37;;;;;;;5.30;3.03;;;;;;;-145.06;0.00;60892.56;4868502;28;20037;-88
2022/01/13 06:17:16;;;;;;;4.10;2.45;;;;;;;-145.06;0.00;60892.56;4869750;28;20037;-88
2022/01/13 06:19:56;;;;;;;4.97;2.80;;;;;;;-145.06;0.00;60892.56;4862850;28;20120;-87
2022/01/13 06:22:37;;;;;;;4.75;2.90;;;;;;;-145.06;0.00;60892.56;4859637;28;20037;-87
2022/01/13 06:25:17;;;;;;;5.32;3.25;;;;;;;-145.06;0.00;60892.56;4868834;28;20037;-89
2022/01/13 06:27:56;;;;;;;;;;;;;;;-145.06;0.00;60892.56;4852979;28;20037;-88
2022/01/13 06:30:35;;;;;;;5.03;2.90;;;;;;;-145.06;0.00;60892.56;4851386;28;19921;-87
2022/01/13 06:33:14;;;;;;;4.97;2.80;;;;;;;-145.06;0.00;60892.56;4864050;28;20284;-87
2022/01/13 06:35:53;;;;;;;4.70;3.00;;;;;;;-145.06;0.00;60892.56;4854815;28;20037;-88
2022/01/13 06:38:33;;;;;;;3.63;2.20;;;;;;;21.08;0.00;60892.56;4850343;28;20624;-88
2022/01/13 06:41:12;;;;;;;3.75;2.35;;;;;;;5.49;0.00;60892.56;4850983;28;20033;-87
2022/01/13 06:43:51;;;;;;;4.53;2.67;;;;;;;-145.06;0.00;60892.56;4852222;28;20443;-88
2022/01/13 06:46:30;;;;;;;4.00;2.65;;;;;;;187.52;0.00;60892.56;4853656;28;20037;-88
2022/01/13 06:49:09;;;;;;;5.25;2.75;;;;;;;-145.06;0.00;60892.56;4865342;28;20038;-87
2022/01/13 06:51:48;;;;;;;5.63;3.27;;;;;;;-145.06;0.00;60892.56;4852789;28;20361;-89
2022/01/13 06:54:27;;;;;;;4.45;2.80;;;;;;;10.68;0.00;60892.56;4853551;28;20029;-88
2022/01/13 06:57:06;;;;;;;4.00;2.67;;;;;;;-145.06;0.00;60892.56;4854681;28;20045;-89
2022/01/13 06:59:46;;;;;;;3.17;2.37;;;;;;;187.52;0.00;60892.56;4856042;28;20041;-88
2022/01/13 07:02:28;;;;;;;3.85;2.63;;;;;;;-145.06;0.00;60892.56;4855166;28;20112;-88
2022/01/13 07:05:07;;;;;;;3.95;2.72;;;;;;;-145.06;0.00;60892.56;4853746;28;20037;-88
2022/01/13 07:07:46;;;;;;;;;;;;;;;2.89;0.00;60892.56;4851989;28;20037;-88
2022/01/13 07:10:25;;;;;;;3.57;2.30;;;;;;;187.52;0.00;60892.56;4854705;28;19913;-89
2022/01/13 07:13:04;;;;;;;2.72;2.10;;;;;;;5.49;0.00;60892.56;4853087;28;20272;-88
2022/01/13 07:15:45;;;;;;;3.63;2.43;;;;;;;-145.06;0.00;60892.56;4853535;28;20029;-87
2022/01/13 07:18:24;;;;;;;2.70;1.88;;;;;;;-145.06;0.00;60892.56;4853090;28;20272;-88
2022/01/13 07:21:04;;;;;;;3.53;2.40;;;;;;;-145.06;0.00;60892.56;4854602;28;20033;-88
2022/01/13 07:23:44;;;;;;;4.53;2.40;;;;;;;-145.06;0.00;60892.56;4850274;28;20041;-88
2022/01/13 07:26:23;;;;;;;3.67;2.30;;;;;;;-145.06;0.00;60892.56;4849105;28;20029;-88
2022/01/13 07:29:04;;;;;;;3.72;2.30;;;;;;;-145.06;0.00;60892.56;4854579;28;20049;-88
2022/01/13 07:31:43;;;;;;;3.08;1.95;;;;;;;-145.06;0.00;60892.56;4868175;28;20549;-88
2022/01/13 07:34:22;;;;;;;3.40;2.17;;;;;;;-145.06;0.00;60892.56;4863606;28;20030;-88
2022/01/13 07:37:01;;;;;;;2.87;2.20;;;;;;;-145.06;0.00;60892.56;4855513;28;20618;-87
2022/01/13 07:39:40;;;;;;;4.38;2.80;;;;;;;-145.06;0.00;60892.56;4855202;28;20034;-87
2022/01/13 07:42:19;;;;;;;4.15;2.60;;;;;;;-145.06;0.00;60892.56;4856076;28;20041;-87
2022/01/13 07:44:58;;;;;;;4.38;2.78;;;;;;;-145.06;0.00;60892.56;4868353;28;20037;-88
2022/01/13 07:47:36;;;;;;;4.05;2.50;;;;;;;-145.06;0.00;60892.56;4860557;28;20375;-88
2022/01/13 07:50:15;;;;;;;3.55;2.50;;;;;;;-145.06;0.00;60892.56;4857201;28;20033;-87
2022/01/13 07:52:55;;;;;;;4.28;2.85;;;;;;;-145.06;0.00;60892.56;4853874;28;20495;-88
2022/01/13 07:55:34;;;;;;;4.95;3.10;;;;;;;-145.06;0.00;60892.56;4854431;28;20033;-88
2022/01/13 07:58:13;;;;;;;4.57;2.55;;;;;;;-145.06;0.00;60892.56;4855540;28;20037;-88
2022/01/13 08:00:52;;;;;;;4.10;2.40;;;;;;;-145.06;0.00;60892.56;4855602;28;20479;-89
2022/01/13 08:03:31;;;;;;;3.70;2.20;;;;;;;-145.06;0.00;60892.56;4835420;28;20038;-88
2022/01/13 08:06:10;;;;;;;3.20;2.30;;;;;;;-145.06;0.00;60892.56;4852227;28;20757;-88
2022/01/13 08:08:49;;;;;;;3.60;2.15;;;;;;;-145.06;0.00;60892.56;4853444;28;20033;-89
2022/01/13 08:11:28;;;;;;;4.07;2.35;;;;;;;-145.06;0.00;60892.56;4854856;28;20038;-88
2022/01/13 08:14:07;;;;;;;4.60;2.43;;;;;;;-145.06;0.00;60892.56;4854166;28;20052;-87
2022/01/13 08:16:47;;;;;;;4.05;2.50;;;;;;;-145.06;0.00;60892.56;4855098;28;20285;-89
2022/01/13 08:22:24;;;;;;;3.00;2.00;;;;;;;-145.06;0.00;60892.56;4861893;28;19960;-88
2022/01/13 08:25:03;;;;;;;3.70;2.23;;;;;;;-145.06;0.00;60892.56;4855340;28;20487;-89
2022/01/13 08:27:42;;;;;;;6.35;2.97;;;;;;;-145.06;0.00;60892.56;4855171;28;20928;-88
2022/01/13 08:30:21;;;;;;;4.83;2.70;;;;;;;-145.06;0.00;60892.56;4855935;28;20026;-87
2022/01/13 08:33:00;;;;;;;4.93;2.90;;;;;;;-145.06;0.00;60892.56;4852019;28;20033;-89
2022/01/13 08:35:43;;;;;;;4.90;2.83;;;;;;;-145.06;0.00;60892.56;4855525;28;20368;-89
2022/01/13 08:38:24;;;;;;;5.72;3.17;;;;;;;-145.06;0.00;60892.56;4855182;28;20041;-88
2022/01/13 08:41:03;;;;;;;4.90;2.75;;;;;;;-145.06;0.00;60892.56;4855724;28;20030;-88
2022/01/13 08:43:42;;;;;;;5.50;3.00;;;;;;;-145.06;0.00;60892.56;4854348;28;20030;-87
2022/01/13 08:46:23;;;;;;;5.50;3.05;;;;;;;-145.06;0.00;60892.56;4854787;28;20538;-88
2022/01/13 08:49:03;;;;;;;6.25;3.35;;;;;;;-145.06;0.00;60892.56;4860045;28;20371;-89
2022/01/13 08:51:42;;;;;;;;;;;;;;;-145.06;0.00;60892.56;4855253;28;20030;-88
2022/01/13 08:54:22;;;;;;;4.53;2.45;;;;;;;-145.06;0.00;60892.56;4854183;28;19909;-86
2022/01/13 08:57:02;;;;;;;4.35;2.63;;;;;;;-145.06;0.00;60892.56;4854358;28;20116;-87
2022/01/13 08:59:41;;;;;;;6.53;2.85;;;;;;;-145.06;0.00;60892.56;4855237;28;20037;-88
2022/01/13 09:02:20;;;;;;;5.00;3.00;;;;;;;-145.06;0.00;60892.56;4853765;28;20037;-88
2022/01/13 09:05:04;;;;;;;6.10;3.30;;;;;;;-145.06;0.00;60892.56;4854596;28;20037;-88
2022/01/13 09:07:43;;;;;;;6.32;3.60;;;;;;;-145.06;0.00;60892.56;4852937;28;20034;-88
2022/01/13 09:10:22;;;;;;;5.40;3.47;;;;;;;-145.06;0.00;60892.56;4854310;28;20444;-88
2022/01/13 09:13:02;;;;;;;5.63;3.28;;;;;;;-145.06;0.00;60892.56;4857471;28;20495;-87
2022/01/13 09:15:51;;;;;;;5.05;3.10;;;;;;;-145.06;0.00;60892.56;4852780;28;20022;-88
2022/01/13 09:18:46;;;;;;;5.47;2.85;;;;;;;-145.06;0.00;60892.56;4874501;28;20026;-87
2022/01/13 09:21:28;;;;;;;4.93;2.72;;;;;;;-145.06;0.00;60892.56;4846295;28;20046;-88
2022/01/13 09:24:10;;;;;;;4.57;2.90;;;;;;;-145.06;0.00;60892.56;4853847;28;20057;-88
2022/01/13 09:26:49;;;;;;;5.63;2.78;;;;;;;-145.06;0.00;60892.56;4858567;28;20030;-88
2022/01/13 09:29:28;;;;;;;5.53;2.97;;;;;;;-145.06;0.00;60892.56;4853881;28;20037;-88
2022/01/13 09:32:08;;;;;;;9.05;3.70;;;;;;;-145.06;0.00;60892.56;4880815;28;20029;-88
2022/01/13 09:34:47;;;;;;;6.00;3.13;;;;;;;-145.06;0.00;60892.56;4870223;28;20045;-88
2022/01/13 09:37:26;;;;;;;5.32;3.28;;;;;;;-145.06;0.00;60892.56;4860000;28;20033;-88
2022/01/13 09:40:07;;;;;;;4.53;2.97;;;;;;;-145.06;0.00;60892.56;4858939;28;20037;-89
2022/01/13 09:42:48;;;;;;;5.00;3.10;;;;;;;-145.06;0.00;60892.56;4855765;28;20483;-88
2022/01/13 09:45:27;;;;;;;6.15;3.25;;;;;;;-145.06;0.00;60892.56;4857112;28;20112;-88
2022/01/13 09:48:06;;;;;;;5.03;2.78;;;;;;;-145.06;0.00;60892.56;4859831;28;20033;-89
2022/01/13 09:50:46;;;;;;;5.20;2.90;;;;;;;-145.06;0.00;60892.56;4857638;28;20030;-89
2022/01/13 09:53:25;;;;;;;5.72;3.17;;;;;;;-145.06;0.00;60892.56;4860554;28;20124;-89
2022/01/13 09:56:04;;;;;;;5.95;3.30;;;;;;;-145.06;0.00;60892.56;4856413;28;20628;-89
2022/01/13 09:58:44;;;;;;;4.87;2.90;;;;;;;10.68;0.00;60892.56;4862136;28;20467;-89
2022/01/13 10:01:23;;;;;;;3.95;2.97;;;;;;;-145.06;0.00;60892.56;4864002;28;20034;-90
2022/01/13 10:04:02;;;;;;;4.10;2.80;;;;;;;-145.06;0.00;60892.56;4856466;28;20034;-88
2022/01/13 10:06:46;;;;;;;4.75;3.15;;;;;;;10.68;0.00;60892.56;4857414;28;20273;-89
2022/01/13 10:09:26;;;;;;;3.72;2.72;;;;;;;187.52;0.00;60892.56;4857343;28;20041;-89
2022/01/13 10:12:08;;;;;;;4.67;2.83;;;;;;;-145.06;0.00;60892.56;4837933;28;20033;-88
2022/01/13 10:17:48;;;;;;;5.15;3.10;;;;;;;187.52;0.00;60892.56;4848299;28;20037;-89
2022/01/13 10:20:28;;;;;;;4.68;3.30;;;;;;;10.68;0.00;60892.56;4855311;28;20112;-88
2022/01/13 10:23:11;;;;;;;5.07;3.05;;;;;;;-145.06;0.00;60892.56;4856838;28;20033;-88
2022/01/13 10:25:50;;;;;;;5.20;3.13;;;;;;;-145.06;0.00;60892.56;4877008;28;20048;-88
2022/01/13 10:28:30;;;;;;;5.23;3.10;;;;;;;2.62;0.00;60892.56;4856685;28;20061;-88
2022/01/13 10:31:09;;;;;;;;;;;;;;;2.73;0.00;60892.56;4856677;28;20022;-88
2022/01/13 10:33:48;;;;;;;5.55;3.40;;;;;;;2.73;0.00;60892.56;4855868;28;20354;-88
2022/01/13 10:36:27;;;;;;;5.85;3.60;;;;;;;-145.06;0.00;60892.56;4856473;28;20063;-88
2022/01/13 10:39:06;;;;;;;4.78;3.10;;;;;;;-145.06;0.00;60892.56;4856453;28;20025;-88
2022/01/13 10:42:11;;;;;;;4.93;3.30;;;;;;;2.82;0.00;60892.56;4842109;28;20038;-88
2022/01/13 10:44:55;;;;;;;5.90;3.85;;;;;;;-145.06;0.00;60892.56;4847007;28;20030;-88
2022/01/13 10:47:34;;;;;;;5.72;3.60;;;;;;;-145.06;0.00;60892.56;4864680;28;20041;-88
2022/01/13 10:50:14;;;;;;;5.85;3.53;;;;;;;-145.06;0.00;60892.56;4876746;28;20065;-87
2022/01/13 10:52:53;;;;;;;6.97;3.78;;;;;;;-145.06;0.00;60892.56;4875723;28;20033;-87
2022/01/13 10:55:37;;;;;;;5.10;3.40;;;;;;;-145.06;0.00;60892.56;4856303;28;20073;-87
2022/01/13 10:58:18;;;;;;;6.00;3.55;;;;;;;-145.06;0.00;60892.56;4869869;28;20495;-87
2022/01/13 11:00:59;;;;;;;5.05;2.97;;;;;;;-145.06;0.00;60892.56;4866391;28;21544;-87
2022/01/13 11:03:40;;;;;;;6.05;3.60;;;;;;;-145.06;0.00;60892.56;4855995;28;20029;-87
2022/01/13 11:06:28;;;;;;;5.22;3.63;;;;;;;-145.06;0.00;60892.56;4850934;28;20069;-88
2022/01/13 11:09:15;;;;;;;4.43;2.95;;;;;;;-145.06;0.00;60892.56;4856547;28;20025;-87
2022/01/13 11:11:58;;;;;;;8.55;3.67;;;;;;;-145.06;0.00;60892.56;4859778;28;20025;-88
2022/01/13 11:14:52;;;;;;;5.57;3.05;;;;;;;-145.06;0.00;60892.56;4853940;28;20594;-88
2022/01/13 11:17:34;;;;;;;6.00;3.58;;;;;;;-145.06;0.00;60892.56;4862628;28;20033;-88
2022/01/13 11:20:20;;;;;;;5.07;3.30;;;;;;;-145.06;0.00;60892.56;4855743;28;20041;-87
2022/01/13 11:22:59;;;;;;;4.97;3.45;;;;;;;-145.06;0.00;60892.56;4854803;28;20037;-88
2022/01/13 11:25:38;;;;;;;6.80;4.00;;;;;;;187.52;0.00;60892.56;4869295;28;20029;-87
2022/01/13 11:28:18;;;;;;;6.77;4.13;;;;;;;-145.06;0.00;60892.56;4855121;28;20709;-87
2022/01/13 11:30:58;;;;;;;9.55;3.80;;;;;;;-145.06;0.00;60892.56;4854691;28;20269;-87
2022/01/13 11:33:38;;;;;;;;;;;;;;;-145.06;0.00;60892.56;4850458;28;20033;-87
2022/01/13 11:36:19;;;;;;;6.13;3.80;;;;;;;-145.06;0.00;60892.56;4854663;28;19917;-87
2022/01/13 11:39:01;;;;;;;4.90;3.40;;;;;;;6.79;0.00;60892.56;4855250;28;20368;-88
2022/01/13 11:42:20;;;;;;;5.28;3.60;;;;;;;-145.06;0.00;60892.56;4849614;28;20030;-87
2022/01/13 11:45:16;;;;;;;5.72;3.63;;;;;;;-145.06;0.00;60892.56;4863783;28;20040;-88
2022/01/13 11:48:13;;;;;;;4.80;3.60;;;;;;;-145.06;0.00;60892.56;4880575;28;20036;-87
2022/01/13 11:51:14;;;;;;;6.68;3.38;;;;;;;-145.06;0.00;60892.56;4867555;28;20029;-89
2022/01/13 11:53:59;;;;;;;5.25;3.70;;;;;;;6.79;0.00;60892.56;4855299;28;20029;-87
2022/01/13 11:56:38;;;;;;;5.43;3.20;;;;;;;-145.06;0.00;60892.56;4856657;28;20633;-88
2022/01/13 11:59:17;;;;;;;5.57;3.80;;;;;;;-145.06;0.00;60892.56;4855687;28;20025;-87
2022/01/13 12:02:25;;;;;;;5.75;3.78;;;;;;;-145.06;0.00;60892.56;4854414;28;20284;-88
2022/01/13 12:05:15;;;;;;;5.28;3.75;;;;;;;-145.06;0.00;60892.56;4866305;28;20372;-88
2022/01/13 12:07:58;;;;;;;4.53;3.28;;;;;;;7.71;0.00;60892.56;4869132;28;20029;-88
2022/01/13 12:10:39;;;;;;;5.85;3.80;;;;;;;7.87;0.00;60892.56;4853027;28;20491;-88
2022/01/13 12:13:28;;;;;;;5.78;3.83;;;;;;;8.03;0.00;60892.56;4856568;28;20037;-87
2022/01/13 12:16:09;;;;;;;6.07;3.90;;;;;;;-145.06;0.00;60892.56;4853064;28;20037;-87
2022/01/13 12:19:13;;;;;;;4.63;3.40;;;;;;;-145.06;0.00;60892.56;4844621;28;20057;-87
2022/01/13 12:22:02;;;;;;;5.00;3.55;;;;;;;-145.06;0.00;60892.56;4864344;28;20053;-86
2022/01/13 12:24:48;;;;;;;4.85;3.45;;;;;;;-145.06;0.00;60892.56;4864272;28;20487;-88
2022/01/13 12:27:39;;;;;;;5.85;4.10;;;;;;;-145.06;0.00;60892.56;4854908;28;20025;-88
2022/01/13 12:30:26;;;;;;;6.63;3.90;;;;;;;8.94;0.00;60892.56;4868946;28;20041;-88
2022/01/13 12:33:07;;;;;;;5.28;3.65;;;;;;;-145.06;0.00;60892.56;4852794;28;20025;-87
2022/01/13 12:35:48;;;;;;;5.43;3.65;;;;;;;-145.06;0.00;60892.56;4863269;28;20517;-87
2022/01/13 12:38:27;;;;;;;6.25;4.32;;;;;;;-145.06;0.00;60892.56;4854518;28;20025;-89
2022/01/13 12:41:16;;;;;;;5.50;3.65;;;;;;;9.32;0.00;60892.56;4858595;28;20038;-88
2022/01/13 12:44:12;;;;;;;7.00;4.18;;;;;;;9.36;0.00;60892.56;4857572;28;20400;-88
2022/01/13 12:46:51;;;;;;;6.35;4.00;;;;;;;-145.06;0.00;60892.56;4855674;28;20044;-87
2022/01/13 12:49:30;;;;;;;5.80;3.83;;;;;;;-145.06;0.00;60892.56;4858831;28;20034;-88
2022/01/13 12:52:09;;;;;;;5.97;3.75;;;;;;;-145.06;0.00;60892.56;4857093;28;20053;-89
2022/01/13 12:54:49;;;;;;;5.97;3.77;;;;;;;-145.06;0.00;60892.56;4864596;28;20418;-88
2022/01/13 12:57:28;;;;;;;;;;;;;;;-145.06;0.00;60892.56;4858954;28;20057;-88
2022/01/13 13:00:08;;;;;;;3.78;2.53;;;;;;;9.51;0.00;60892.56;4862146;28;19925;-88